Alta, Illinois
Current Conditions -  °F | °C
As of 10:54 AM on Saturday 25 Oct 2014 (Local Time) from KPIA Reporting Station
Haze Haze  
Wind Chill: 15°   Ceiling: Unl
Heat Index: 15°   Visibility: 6mi
Dew Point: 13°   Wind: 6mph
Humidity: 87%   Direction: 320°NW
Pressure: 30.03"   Gusts: NA
Location:  40.7792°N, 89.6377°W
Report Text: KPIA 251554Z 32005KT 6SM BR SCT005 15/13 A3003 RMK AO2 SLP168 T01500128
Loading
Personal Weather Stations






























Interactive Weather Map
Tropical Storm Tracking
New forecast layout! Learn more

10-Day Weather Forecast

Advertisements
Track Severe Weather on mobile